Time;durP1;ratioP1;P1;durP2;ratioP2;P2;SDS_P1;SDS_P2;PMS_P1;PMS_P2;Temp;Humidity;BMP_temperature;BMP_pressure;BME280_temperature;BME280_humidity;BME280_pressure;Samples;Min_cycle;Max_cycle;Signal;HPM_P1;HPM_P2
2022/01/04 00:01:21;;;;;;;;;13.67;12.33;;;;;12.45;86.57;100085.59;5023034;28;45400;-65
2022/01/04 00:03:47;;;;;;;;;7.00;7.00;;;;;12.47;86.36;100064.47;5035324;28;45420;-65
2022/01/04 00:06:13;;;;;;;;;7.00;7.00;;;;;12.42;86.03;100055.09;5023930;28;45385;-65
2022/01/04 00:08:38;;;;;;;;;7.00;6.67;;;;;12.27;86.13;100057.72;5035228;28;46554;-65
2022/01/04 00:11:16;;;;;;;;;9.00;8.00;;;;;12.17;86.87;100057.09;5025796;28;45328;-65
2022/01/04 00:13:43;;;;;;;;;10.00;8.00;;;;;12.20;87.04;100048.56;5022008;28;45434;-65
2022/01/04 00:16:10;;;;;;;;;10.00;7.67;;;;;11.99;86.28;100048.28;5042602;28;45559;-65
2022/01/04 00:18:35;;;;;;;;;6.67;6.67;;;;;11.94;86.68;100042.53;5031560;28;45273;-65
2022/01/04 00:21:01;;;;;;;;;6.00;6.00;;;;;11.71;86.41;100040.50;5030727;28;45324;-65
2022/01/04 00:23:26;;;;;;;;;5.33;5.33;;;;;11.74;86.64;100019.41;5040854;28;45618;-65
2022/01/04 00:25:51;;;;;;;;;6.33;6.33;;;;;11.54;86.86;100022.50;5033685;28;45442;-65
2022/01/04 00:28:17;;;;;;;;;4.00;4.00;;;;;11.43;87.08;100013.84;5039590;28;48451;-65
2022/01/04 00:30:43;;;;;;;;;6.00;5.00;;;;;11.47;87.70;100020.66;5032647;28;45314;-65
2022/01/04 00:33:11;;;;;;;;;5.33;5.00;;;;;11.36;87.13;100005.53;5041864;28;45369;-65
2022/01/04 00:35:37;;;;;;;;;5.00;5.00;;;;;11.12;87.10;99989.22;5035735;28;45525;-65
2022/01/04 00:38:03;;;;;;;;;4.00;3.00;;;;;11.10;86.83;99994.00;5042442;28;47086;-65
2022/01/04 00:40:28;;;;;;;;;4.00;4.00;;;;;11.10;87.29;99986.69;5027522;28;45450;-65
2022/01/04 00:43:00;;;;;;;;;3.00;3.00;;;;;11.02;86.74;99991.28;5044938;28;45381;-65
2022/01/04 00:45:26;;;;;;;;;2.67;2.67;;;;;10.99;86.78;99972.56;5040464;28;45284;-66
2022/01/04 00:50:24;;;;;;;;;1.67;1.33;;;;;10.68;87.07;99962.38;5031833;28;45286;-65
2022/01/04 00:52:50;;;;;;;;;3.33;2.00;;;;;10.60;87.06;99965.06;5046004;28;45306;-65
2022/01/04 00:55:16;;;;;;;;;3.67;2.00;;;;;10.64;87.14;99963.72;5026314;28;45319;-65
2022/01/04 00:57:42;;;;;;;;;0.00;0.00;;;;;10.64;87.62;99958.31;5034970;28;45329;-65
2022/01/04 01:00:09;;;;;;;;;2.00;2.00;;;;;10.60;87.87;99951.50;5028073;28;45434;-65
2022/01/04 01:02:35;;;;;;;;;2.33;2.33;;;;;10.54;88.44;99947.59;5034994;28;45365;-65
2022/01/04 01:05:00;;;;;;;;;6.00;4.00;;;;;10.64;88.39;99946.59;5029641;28;45664;-65
2022/01/04 01:07:26;;;;;;;;;3.00;3.00;;;;;10.53;88.50;99929.59;5033383;28;47129;-65
2022/01/04 01:12:28;;;;;;;;;5.33;4.00;;;;;10.53;87.99;99928.72;5026331;28;46363;-65
2022/01/04 01:14:54;;;;;;;;;4.67;4.67;;;;;10.51;88.21;99911.78;5031661;28;45248;-65
2022/01/04 01:17:20;;;;;;;;;5.67;2.67;;;;;10.37;88.07;99916.00;5034851;28;46567;-65
2022/01/04 01:19:45;;;;;;;;;3.00;3.00;;;;;10.32;88.38;99912.06;5021275;28;46181;-65
2022/01/04 01:22:10;;;;;;;;;3.00;3.00;;;;;10.28;88.14;99908.84;5036941;28;45379;-67
2022/01/04 01:24:36;;;;;;;;;4.33;4.00;;;;;10.14;88.45;99891.31;5033459;28;45334;-65
2022/01/04 01:27:01;;;;;;;;;5.00;4.00;;;;;10.21;88.87;99898.84;5037467;28;45397;-66
2022/01/04 01:29:28;;;;;;;;;4.33;4.33;;;;;10.12;89.43;99895.22;5031724;28;45523;-65
2022/01/04 01:31:53;;;;;;;;;8.00;4.00;;;;;10.15;89.52;99898.44;5038540;28;45370;-65
2022/01/04 01:34:19;;;;;;;;;4.00;2.33;;;;;10.22;90.30;99890.53;5035058;28;45318;-65
2022/01/04 01:36:44;;;;;;;;;3.67;3.67;;;;;10.19;89.95;99893.56;5032018;28;46565;-65
2022/01/04 01:39:09;;;;;;;;;5.00;3.67;;;;;10.12;89.07;99882.50;5029530;28;45377;-65
2022/01/04 01:41:34;;;;;;;;;3.00;3.00;;;;;10.14;88.96;99879.63;5033789;28;45414;-66
2022/01/04 01:44:00;;;;;;;;;4.00;4.00;;;;;10.22;89.14;99870.69;5030485;28;45323;-65
2022/01/04 01:46:25;;;;;;;;;4.00;4.00;;;;;10.29;88.94;99868.97;5033371;28;46431;-65
2022/01/04 01:48:50;;;;;;;;;4.00;3.00;;;;;10.23;88.54;99856.09;5037605;28;45475;-65
2022/01/04 01:51:17;;;;;;;;;5.00;4.00;;;;;10.08;88.55;99847.72;5034023;28;45452;-65
2022/01/04 01:53:44;;;;;;;;;6.00;5.00;;;;;10.09;88.87;99852.09;5039480;28;45456;-65
2022/01/04 01:56:09;;;;;;;;;4.67;4.00;;;;;10.10;88.20;99835.66;5034939;28;45413;-65
2022/01/04 01:58:35;;;;;;;;;1.33;1.33;;;;;10.07;87.81;99832.44;5036053;28;45154;-65
2022/01/04 02:01:00;;;;;;;;;1.33;1.00;;;;;10.09;88.43;99831.25;5024930;28;45488;-65
2022/01/04 02:03:26;;;;;;;;;3.67;2.33;;;;;10.20;88.41;99830.13;5036424;28;45641;-65
2022/01/04 02:05:51;;;;;;;;;2.00;2.00;;;;;10.20;88.27;99826.56;5027050;28;46605;-65
2022/01/04 02:08:18;;;;;;;;;2.67;1.67;;;;;10.27;87.57;99835.72;5052470;28;45302;-65
2022/01/04 02:10:45;;;;;;;;;1.00;1.00;;;;;10.26;88.03;99829.44;5028316;28;45339;-65
2022/01/04 02:13:11;;;;;;;;;1.33;1.33;;;;;10.18;88.09;99836.72;5036900;28;45513;-65
2022/01/04 02:15:37;;;;;;;;;2.00;1.00;;;;;10.24;89.27;99817.03;5029425;28;45327;-66
2022/01/04 02:18:03;;;;;;;;;1.00;1.00;;;;;10.27;89.25;99809.41;5035901;28;45424;-65
2022/01/04 02:20:28;;;;;;;;;1.00;1.00;;;;;10.22;88.29;99789.25;5029270;28;45358;-65
2022/01/04 02:22:54;;;;;;;;;2.00;2.00;;;;;10.34;88.27;99793.28;5039834;28;45563;-65
2022/01/04 02:25:20;;;;;;;;;1.67;1.67;;;;;10.41;88.22;99788.88;5031356;28;45328;-65
2022/01/04 02:27:45;;;;;;;;;2.00;2.00;;;;;10.43;87.38;99785.00;5012878;28;45228;-65
2022/01/04 02:30:14;;;;;;;;;2.00;2.00;;;;;10.44;87.50;99792.13;5032383;28;45426;-65
2022/01/04 02:32:40;;;;;;;;;1.00;1.00;;;;;10.43;86.36;99786.84;5042120;28;45523;-65
2022/01/04 02:35:06;;;;;;;;;0.67;0.67;;;;;10.37;85.75;99776.69;5026621;28;46789;-65
2022/01/04 02:37:33;;;;;;;;;1.00;1.00;;;;;10.36;86.21;99775.81;5041951;28;45464;-65
2022/01/04 02:39:58;;;;;;;;;1.00;0.00;;;;;10.32;86.33;99769.03;5028946;28;45402;-65
2022/01/04 02:42:24;;;;;;;;;1.00;1.00;;;;;10.31;86.43;99755.63;5041313;28;45568;-66
2022/01/04 02:44:49;;;;;;;;;1.00;1.00;;;;;10.28;86.32;99750.53;5027031;28;47560;-65
2022/01/04 02:47:16;;;;;;;;;2.00;1.00;;;;;10.25;86.30;99745.44;5041235;28;45417;-65
2022/01/04 02:49:41;;;;;;;;;1.00;1.00;;;;;10.27;86.30;99743.41;5028576;28;45241;-65
2022/01/04 02:52:07;;;;;;;;;1.33;1.33;;;;;10.31;86.06;99737.47;5041518;28;45457;-65
2022/01/04 02:54:33;;;;;;;;;0.00;0.00;;;;;10.28;85.75;99724.25;5030385;28;46333;-65
2022/01/04 02:56:58;;;;;;;;;0.00;0.00;;;;;10.28;85.88;99718.81;5027413;28;45322;-65
2022/01/04 02:59:24;;;;;;;;;1.00;1.00;;;;;10.32;85.33;99708.44;5030888;28;45507;-65
2022/01/04 03:01:49;;;;;;;;;0.33;0.33;;;;;10.22;85.37;99707.81;5028002;28;45385;-65
2022/01/04 03:04:15;;;;;;;;;0.00;0.00;;;;;10.13;85.20;99710.50;5031968;28;46479;-65
2022/01/04 03:06:40;;;;;;;;;0.00;0.00;;;;;10.16;85.53;99709.28;5027781;28;45436;-65
2022/01/04 03:09:06;;;;;;;;;1.00;1.00;;;;;10.20;85.93;99699.81;5033176;28;45385;-65
2022/01/04 03:11:33;;;;;;;;;2.00;0.00;;;;;10.17;85.81;99689.28;5045508;28;45463;-65
2022/01/04 03:14:00;;;;;;;;;0.00;0.00;;;;;10.22;85.78;99688.81;5033553;28;45765;-65
2022/01/04 03:16:26;;;;;;;;;2.00;0.00;;;;;10.23;85.75;99685.06;5045771;28;45335;-65
2022/01/04 03:19:05;;;;;;;;;0.00;0.00;;;;;10.23;85.42;99691.31;5030969;28;45780;-65
2022/01/04 03:21:34;;;;;;;;;0.00;0.00;;;;;10.26;85.68;99687.41;5032256;28;45465;-65
2022/01/04 03:24:01;;;;;;;;;0.00;0.00;;;;;10.26;85.60;99671.13;5033502;28;46262;-65
2022/01/04 03:26:27;;;;;;;;;0.67;0.00;;;;;10.27;85.30;99667.41;5034884;28;45358;-65
2022/01/04 03:28:52;;;;;;;;;2.00;0.00;;;;;10.28;85.36;99669.09;5019555;28;45465;-65
2022/01/04 03:31:18;;;;;;;;;1.00;1.00;;;;;10.27;85.08;99657.41;5036899;28;45484;-65
2022/01/04 03:33:43;;;;;;;;;0.33;0.00;;;;;10.31;85.38;99658.72;5017470;28;46222;-65
2022/01/04 03:36:09;;;;;;;;;1.00;1.00;;;;;10.26;85.23;99661.13;5020763;28;45322;-65
2022/01/04 03:38:34;;;;;;;;;0.00;0.00;;;;;10.24;85.66;99660.44;5010365;28;45346;-65
2022/01/04 03:41:00;;;;;;;;;0.00;0.00;;;;;10.19;86.28;99660.13;5022265;28;45711;-65
2022/01/04 03:43:25;;;;;;;;;0.00;0.00;;;;;10.18;86.04;99658.41;5007830;28;46403;-65
2022/01/04 03:45:51;;;;;;;;;1.00;1.00;;;;;10.04;86.53;99661.81;5014857;28;45510;-65
2022/01/04 03:48:16;;;;;;;;;0.00;0.00;;;;;9.95;87.50;99658.25;5021527;28;45397;-65
2022/01/04 03:50:42;;;;;;;;;1.00;0.67;;;;;9.89;87.77;99656.22;5019310;28;45378;-65
2022/01/04 03:53:08;;;;;;;;;1.00;1.00;;;;;9.93;88.84;99654.88;5007527;28;45507;-66
2022/01/04 03:55:34;;;;;;;;;0.00;0.00;;;;;9.90;88.87;99649.78;5009102;28;45561;-65
2022/01/04 03:57:59;;;;;;;;;2.00;1.00;;;;;9.85;88.56;99652.16;5030247;28;45458;-66
2022/01/04 04:00:25;;;;;;;;;1.00;0.00;;;;;9.71;88.51;99652.84;5022593;28;45548;-65
2022/01/04 04:02:50;;;;;;;;;0.00;0.00;;;;;9.73;89.10;99651.66;5034248;28;45342;-66
2022/01/04 04:05:16;;;;;;;;;0.00;0.00;;;;;9.68;88.83;99655.88;5025588;28;45191;-66
2022/01/04 04:07:42;;;;;;;;;0.00;0.00;;;;;9.66;89.25;99649.78;5034268;28;45214;-65
2022/01/04 04:10:09;;;;;;;;;0.00;0.00;;;;;9.56;89.32;99646.41;5028185;28;45390;-66
2022/01/04 04:12:34;;;;;;;;;2.00;0.00;;;;;9.63;89.05;99642.00;5033868;28;46181;-66
2022/01/04 04:15:04;;;;;;;;;0.00;0.00;;;;;9.47;88.72;99644.69;5029395;28;45449;-65
2022/01/04 04:17:32;;;;;;;;;0.00;0.00;;;;;9.49;88.94;99645.38;5024743;28;45666;-65
2022/01/04 04:19:57;;;;;;;;;0.00;0.00;;;;;9.48;88.91;99646.41;5029376;28;45397;-66
2022/01/04 04:22:23;;;;;;;;;0.00;0.00;;;;;9.48;89.31;99649.09;5033654;28;48273;-66
2022/01/04 04:24:48;;;;;;;;;2.00;2.00;;;;;9.53;89.20;99644.88;5031036;28;45453;-66
2022/01/04 04:27:14;;;;;;;;;2.00;2.00;;;;;9.57;89.36;99643.50;5035687;28;45298;-65
2022/01/04 04:29:40;;;;;;;;;0.00;0.00;;;;;9.57;89.54;99642.69;5031983;28;45529;-66
2022/01/04 04:32:06;;;;;;;;;0.67;0.67;;;;;9.48;89.20;99638.25;5035788;28;47486;-65
2022/01/04 04:34:32;;;;;;;;;3.00;1.00;;;;;9.59;89.85;99652.31;5028761;28;45400;-65
2022/01/04 04:36:57;;;;;;;;;1.67;1.00;;;;;9.62;89.67;99657.41;5034201;28;45309;-66
2022/01/04 04:39:22;;;;;;;;;3.33;2.00;;;;;9.58;89.62;99649.78;5031847;28;45513;-65
2022/01/04 04:41:49;;;;;;;;;0.00;0.00;;;;;9.48;88.76;99665.38;5032952;28;47314;-66
2022/01/04 04:44:15;;;;;;;;;0.00;0.00;;;;;9.48;89.89;99671.66;5033240;28;45370;-66
2022/01/04 04:46:40;;;;;;;;;1.00;1.00;;;;;9.42;89.79;99660.63;5033843;28;45354;-66
2022/01/04 04:49:06;;;;;;;;;7.00;6.33;;;;;9.42;89.83;99660.63;5035778;28;45335;-66
2022/01/04 04:51:32;;;;;;;;;2.00;2.00;;;;;9.42;89.76;99672.31;5024894;28;45469;-66
2022/01/04 04:53:57;;;;;;;;;2.00;2.00;;;;;9.55;90.38;99655.56;5031075;28;45369;-66
2022/01/04 04:56:22;;;;;;;;;0.00;0.00;;;;;9.61;89.20;99665.72;5022254;28;45267;-66
2022/01/04 04:58:48;;;;;;;;;0.00;0.00;;;;;9.34;89.09;99666.88;5033845;28;45386;-66
2022/01/04 05:01:13;;;;;;;;;1.33;1.33;;;;;9.28;89.48;99676.50;5022120;28;45385;-65
2022/01/04 05:03:38;;;;;;;;;1.00;0.00;;;;;9.36;90.11;99672.97;5035648;28;45460;-67
2022/01/04 05:06:04;;;;;;;;;2.00;2.00;;;;;9.34;89.71;99675.00;5025980;28;45439;-65
2022/01/04 05:08:29;;;;;;;;;1.67;1.00;;;;;9.30;89.31;99669.06;5038284;28;45378;-66
2022/01/04 05:10:55;;;;;;;;;2.00;2.00;;;;;9.30;89.22;99684.47;5029594;28;45316;-65
2022/01/04 05:13:20;;;;;;;;;5.00;2.00;;;;;9.35;89.96;99693.78;5037545;28;45636;-66
2022/01/04 05:15:45;;;;;;;;;2.33;2.33;;;;;9.36;90.09;99690.06;5030612;28;45711;-66
2022/01/04 05:18:11;;;;;;;;;2.00;2.00;;;;;9.40;89.19;99692.47;5036331;28;45364;-66
2022/01/04 05:20:36;;;;;;;;;5.00;3.67;;;;;9.41;89.55;99692.31;5030623;28;45773;-66
2022/01/04 05:23:01;;;;;;;;;5.00;2.00;;;;;9.38;89.25;99685.34;5040897;28;45818;-66
2022/01/04 05:25:27;;;;;;;;;2.33;1.00;;;;;9.32;89.28;99688.72;5032073;28;45591;-65
2022/01/04 05:27:52;;;;;;;;;3.00;1.33;;;;;9.28;89.22;99700.91;5040951;28;45670;-66
2022/01/04 05:30:17;;;;;;;;;3.50;2.00;;;;;9.33;89.69;99701.28;5042463;28;48487;-66
2022/01/04 05:32:43;;;;;;;;;1.67;1.00;;;;;9.37;89.33;99697.19;5041463;28;45560;-66
2022/01/04 05:35:08;;;;;;;;;2.00;0.00;;;;;9.35;89.22;99698.41;5036359;28;45323;-66
2022/01/04 05:37:34;;;;;;;;;0.00;0.00;;;;;9.32;88.74;99686.03;5042149;28;45322;-66
2022/01/04 05:39:59;;;;;;;;;0.67;0.00;;;;;9.31;88.43;99687.03;5028589;28;46342;-66
2022/01/04 05:42:25;;;;;;;;;0.00;0.00;;;;;9.27;88.22;99692.97;5040713;28;45237;-66
2022/01/04 05:44:50;;;;;;;;;1.00;1.00;;;;;9.28;88.60;99695.47;5031089;28;45152;-66
2022/01/04 05:47:16;;;;;;;;;4.00;3.00;;;;;9.21;88.77;99686.31;5041686;28;45170;-66
2022/01/04 05:49:41;;;;;;;;;8.67;8.67;;;;;9.20;88.64;99679.22;5033125;28;46383;-66
2022/01/04 05:52:07;;;;;;;;;2.00;1.67;;;;;9.25;88.90;99681.44;5040831;28;45621;-66
2022/01/04 05:54:32;;;;;;;;;2.00;1.00;;;;;9.17;89.07;99681.41;5031002;28;45539;-66
2022/01/04 05:56:58;;;;;;;;;2.00;2.00;;;;;9.10;88.84;99681.22;5040363;28;45302;-66
2022/01/04 05:59:23;;;;;;;;;3.33;2.00;;;;;9.07;88.30;99692.38;5033121;28;46254;-66
2022/01/04 06:01:48;;;;;;;;;2.33;1.00;;;;;9.08;88.96;99694.06;5027529;28;45297;-66
2022/01/04 06:04:14;;;;;;;;;4.33;4.33;;;;;9.07;88.96;99678.81;5044569;28;45532;-66
2022/01/04 06:06:41;;;;;;;;;7.67;6.00;;;;;9.18;89.92;99678.53;5030401;28;45359;-65
2022/01/04 06:09:08;;;;;;;;;3.33;2.67;;;;;9.33;88.95;99673.31;5033819;28;47513;-66
2022/01/04 06:11:56;;;;;;;;;2.00;2.00;;;;;9.37;88.48;99663.81;5031197;28;45317;-66
2022/01/04 06:17:09;;;;;;;;;4.00;2.33;;;;;9.23;88.34;99672.59;5028917;28;45428;-66
2022/01/04 06:19:35;;;;;;;;;7.00;3.00;;;;;9.28;87.77;99664.81;5027484;28;46795;-65
2022/01/04 06:22:00;;;;;;;;;7.00;7.00;;;;;9.28;88.27;99673.78;5036913;28;45345;-67
2022/01/04 06:24:26;;;;;;;;;4.00;2.00;;;;;9.33;88.07;99681.44;5033620;28;45405;-66
2022/01/04 06:26:52;;;;;;;;;2.33;2.33;;;;;9.28;88.46;99689.22;5038612;28;45636;-66
2022/01/04 06:29:20;;;;;;;;;0.67;0.33;;;;;9.24;87.65;99694.13;5033905;28;45423;-66
2022/01/04 06:31:45;;;;;;;;;4.67;3.00;;;;;9.32;87.90;99699.56;5039353;28;45316;-65
2022/01/04 06:34:10;;;;;;;;;8.67;8.67;;;;;9.29;88.22;99723.44;5033972;28;45379;-66
2022/01/04 06:36:36;;;;;;;;;2.00;2.00;;;;;9.18;87.63;99710.19;5033024;28;45263;-66
2022/01/04 06:39:01;;;;;;;;;3.00;2.00;;;;;9.37;87.68;99720.75;5036284;28;45378;-66
2022/01/04 06:41:27;;;;;;;;;1.00;1.00;;;;;9.40;87.49;99706.03;5032815;28;45254;-65
2022/01/04 06:43:52;;;;;;;;;3.00;3.00;;;;;9.49;86.84;99713.16;5037802;28;47951;-66
2022/01/04 06:46:18;;;;;;;;;2.00;2.00;;;;;9.51;86.30;99716.53;5032524;28;45326;-65
2022/01/04 06:48:43;;;;;;;;;3.67;2.00;;;;;9.48;86.07;99725.88;5038825;28;46324;-65
2022/01/04 06:51:09;;;;;;;;;3.00;3.00;;;;;9.44;86.37;99726.34;5034535;28;45371;-65
2022/01/04 06:53:34;;;;;;;;;5.00;3.00;;;;;9.44;87.08;99731.78;5038818;28;45432;-66
2022/01/04 06:56:00;;;;;;;;;9.33;8.00;;;;;9.35;87.24;99747.19;5023277;28;45539;-66
2022/01/04 06:58:26;;;;;;;;;4.67;4.00;;;;;9.33;87.57;99747.34;5049914;28;48184;-66
2022/01/04 07:00:51;;;;;;;;;10.00;7.67;;;;;9.35;87.78;99753.44;5032494;28;45364;-66
2022/01/04 07:03:17;;;;;;;;;5.33;5.33;;;;;9.42;88.13;99761.78;5036108;28;46056;-66
2022/01/04 07:05:42;;;;;;;;;7.00;7.00;;;;;9.42;87.71;99758.22;5025717;28;45369;-65
2022/01/04 07:08:08;;;;;;;;;7.00;7.00;;;;;9.46;87.48;99756.88;5035904;28;46288;-66
2022/01/04 07:10:33;;;;;;;;;7.00;7.00;;;;;9.39;87.04;99753.97;5042421;28;45335;-65
2022/01/04 07:12:58;;;;;;;;;7.00;7.00;;;;;9.43;87.34;99738.22;5036955;28;45313;-65
2022/01/04 07:15:24;;;;;;;;;7.00;7.00;;;;;9.43;87.04;99755.31;5028833;28;45404;-65
2022/01/04 07:17:49;;;;;;;;;4.00;4.00;;;;;9.46;87.06;99759.56;5033653;28;45173;-65
2022/01/04 07:20:14;;;;;;;;;3.33;3.00;;;;;9.50;86.94;99760.94;5029552;28;45168;-66
2022/01/04 07:22:40;;;;;;;;;3.67;3.67;;;;;9.49;86.21;99743.00;5037045;28;45175;-66
2022/01/04 07:25:06;;;;;;;;;4.33;4.33;;;;;9.51;86.32;99740.94;5032468;28;45177;-66
2022/01/04 07:27:32;;;;;;;;;4.00;4.00;;;;;9.46;86.53;99749.59;5028703;28;48697;-66
2022/01/04 07:29:58;;;;;;;;;3.00;3.00;;;;;9.49;87.02;99745.69;5024583;28;45248;-66
2022/01/04 07:32:24;;;;;;;;;5.00;5.00;;;;;9.53;86.50;99747.06;5035218;28;45397;-66
2022/01/04 07:34:49;;;;;;;;;11.67;8.00;;;;;9.55;85.83;99766.72;5026914;28;45406;-66
2022/01/04 07:37:14;;;;;;;;;10.67;7.67;;;;;9.57;86.09;99768.25;5051248;28;48471;-66
2022/01/04 07:39:40;;;;;;;;;14.67;10.67;;;;;9.54;86.49;99776.72;5029557;28;45337;-66
2022/01/04 07:42:06;;;;;;;;;16.00;12.00;;;;;9.51;86.26;99777.03;5034684;28;45441;-66
2022/01/04 07:44:32;;;;;;;;;16.33;13.33;;;;;9.55;86.77;99777.56;5033025;28;45397;-66
2022/01/04 07:46:57;;;;;;;;;9.33;8.00;;;;;9.55;86.08;99780.28;5034616;28;46326;-67
2022/01/04 07:49:22;;;;;;;;;7.67;7.67;;;;;9.49;85.59;99784.50;5030142;28;45331;-66
2022/01/04 07:51:48;;;;;;;;;9.33;7.00;;;;;9.43;85.89;99787.84;5035767;28;45694;-66
2022/01/04 07:54:13;;;;;;;;;8.00;8.00;;;;;9.54;86.25;99805.69;5032669;28;45551;-67
2022/01/04 07:56:39;;;;;;;;;11.33;11.33;;;;;9.55;86.03;99807.41;5038045;28;46928;-65
2022/01/04 07:59:05;;;;;;;;;10.33;10.00;;;;;9.57;86.21;99805.38;5034194;28;45956;-64
2022/01/04 08:01:31;;;;;;;;;7.67;7.67;;;;;9.62;86.16;99803.88;5021205;28;45430;-65
2022/01/04 08:03:56;;;;;;;;;7.00;7.00;;;;;9.64;85.79;99806.41;5030329;28;45314;-65
2022/01/04 08:06:22;;;;;;;;;7.00;4.67;;;;;9.62;85.47;99820.13;5025674;28;45359;-68
2022/01/04 08:08:48;;;;;;;;;9.33;9.33;;;;;9.57;85.05;99837.91;5034803;28;45416;-68
2022/01/04 08:11:13;;;;;;;;;7.67;7.00;;;;;9.56;84.66;99842.50;5025699;28;45372;-65
2022/01/04 08:13:39;;;;;;;;;8.33;8.00;;;;;9.43;84.33;99841.22;5036130;28;45718;-65
2022/01/04 08:16:05;;;;;;;;;10.33;8.00;;;;;9.47;85.12;99848.91;5026018;28;47079;-65
2022/01/04 08:18:31;;;;;;;;;8.33;8.33;;;;;9.50;85.56;99856.69;5033740;28;45467;-65
2022/01/04 08:20:57;;;;;;;;;12.33;12.33;;;;;9.51;85.76;99861.09;5036651;28;45412;-65
2022/01/04 08:23:24;;;;;;;;;9.33;9.33;;;;;9.57;85.64;99865.03;5038650;28;45776;-66
2022/01/04 08:25:50;;;;;;;;;10.33;8.00;;;;;9.66;85.72;99867.59;5040668;28;47347;-67
2022/01/04 08:28:16;;;;;;;;;11.00;11.00;;;;;9.71;85.17;99859.00;5038293;28;45238;-66
2022/01/04 08:30:42;;;;;;;;;15.00;12.00;;;;;9.71;84.78;99846.28;5022126;28;45425;-65
2022/01/04 08:33:09;;;;;;;;;9.00;9.00;;;;;9.69;85.04;99847.44;5027736;28;45475;-66
2022/01/04 08:35:35;;;;;;;;;10.00;9.00;;;;;9.69;84.76;99850.16;5023125;28;45399;-65
2022/01/04 08:38:00;;;;;;;;;10.00;8.00;;;;;9.69;84.80;99861.00;5041539;28;45451;-67
2022/01/04 08:40:25;;;;;;;;;14.67;11.00;;;;;9.69;84.96;99874.56;5036391;28;45523;-67
2022/01/04 08:42:51;;;;;;;;;8.00;8.00;;;;;9.65;84.76;99873.19;5046043;28;45667;-67
2022/01/04 08:45:17;;;;;;;;;6.33;6.33;;;;;9.65;84.86;99868.59;5026133;28;48425;-67
2022/01/04 08:47:44;;;;;;;;;5.00;5.00;;;;;9.60;83.88;99870.97;5045456;28;45351;-67
2022/01/04 08:50:11;;;;;;;;;7.67;5.67;;;;;9.60;84.85;99870.97;5027422;28;45361;-67
2022/01/04 08:52:37;;;;;;;;;4.67;4.67;;;;;9.44;85.04;99880.88;5033619;28;45200;-67
2022/01/04 08:55:03;;;;;;;;;8.00;8.00;;;;;9.42;85.28;99885.66;5029971;28;45923;-67
2022/01/04 08:57:29;;;;;;;;;9.00;7.00;;;;;9.36;85.87;99868.13;5033172;28;45341;-67
2022/01/04 08:59:55;;;;;;;;;8.00;8.00;;;;;9.38;85.68;99885.94;5029432;28;45500;-67
2022/01/04 09:02:21;;;;;;;;;10.00;9.00;;;;;9.40;85.78;99874.09;5033172;28;45263;-68
2022/01/04 09:04:47;;;;;;;;;8.00;5.00;;;;;9.38;84.87;99894.09;5042928;28;47134;-67
2022/01/04 09:07:13;;;;;;;;;5.67;5.67;;;;;9.51;85.22;99888.22;5035027;28;45446;-67
2022/01/04 09:09:39;;;;;;;;;7.00;7.00;;;;;9.45;84.67;99888.00;5031849;28;45314;-67
2022/01/04 09:12:05;;;;;;;;;8.67;6.00;;;;;9.52;85.12;99895.34;5035497;28;45590;-67
2022/01/04 09:14:43;;;;;;;;;11.00;11.00;;;;;9.48;85.80;99898.56;5023547;28;47184;-68
2022/01/04 09:19:54;;;;;;;;;8.00;7.00;;;;;9.56;85.63;99893.16;5032096;28;45350;-68
2022/01/04 09:22:19;;;;;;;;;9.00;8.67;;;;;9.67;85.68;99898.28;5038618;28;45568;-68
2022/01/04 09:24:44;;;;;;;;;6.00;6.00;;;;;9.56;84.88;99906.72;5043998;28;47195;-67
2022/01/04 09:27:10;;;;;;;;;3.00;3.00;;;;;9.47;84.74;99896.84;5039439;28;45306;-67
2022/01/04 09:29:36;;;;;;;;;9.67;5.33;;;;;9.35;85.26;99893.56;5031151;28;45544;-67
2022/01/04 09:32:04;;;;;;;;;5.00;5.00;;;;;9.41;85.98;99884.78;5036918;28;45415;-67
2022/01/04 09:34:29;;;;;;;;;4.00;4.00;;;;;9.55;85.23;99877.91;5033221;28;46404;-67
2022/01/04 09:36:55;;;;;;;;;3.67;3.67;;;;;9.68;85.22;99872.88;5036267;28;45254;-67
2022/01/04 09:39:23;;;;;;;;;2.67;2.67;;;;;9.70;84.98;99865.41;5031200;28;45572;-68
2022/01/04 09:41:49;;;;;;;;;4.00;3.00;;;;;9.69;84.16;99878.13;5035439;28;45295;-68
2022/01/04 09:44:15;;;;;;;;;3.00;3.00;;;;;9.47;84.27;99886.84;5036662;28;46296;-68
2022/01/04 09:46:42;;;;;;;;;2.33;2.33;;;;;9.49;83.22;99889.41;5035994;28;45429;-67
2022/01/04 09:49:09;;;;;;;;;3.00;3.00;;;;;9.60;83.82;99881.81;5032281;28;45707;-65
2022/01/04 09:51:38;;;;;;;;;2.00;2.00;;;;;9.72;83.85;99899.47;5040365;28;45402;-65
2022/01/04 09:54:04;;;;;;;;;3.33;3.00;;;;;9.66;84.34;99902.00;5035104;28;46861;-67
2022/01/04 09:56:29;;;;;;;;;8.67;3.67;;;;;9.69;84.64;99909.81;5025330;28;45334;-67
2022/01/04 09:58:54;;;;;;;;;4.00;3.00;;;;;9.64;84.63;99917.63;5034693;28;45319;-67
2022/01/04 10:01:25;;;;;;;;;10.00;4.33;;;;;9.62;84.07;99923.19;5025006;28;45330;-65
2022/01/04 10:03:51;;;;;;;;;3.33;3.33;;;;;9.61;84.12;99920.63;5036692;28;46400;-65
2022/01/04 10:06:17;;;;;;;;;5.00;5.00;;;;;9.76;84.21;99927.16;5027402;28;45460;-65
2022/01/04 10:08:59;;;;;;;;;4.00;4.00;;;;;9.83;84.40;99925.47;5037513;28;45382;-65
2022/01/04 10:11:39;;;;;;;;;3.67;2.00;;;;;9.78;83.27;99933.28;5030402;28;45428;-66
2022/01/04 10:14:40;;;;;;;;;5.67;5.00;;;;;9.84;83.84;99943.47;5034369;28;45462;-65
2022/01/04 10:17:30;;;;;;;;;8.00;5.00;;;;;9.93;83.69;99945.22;5027608;28;46035;-65
2022/01/04 10:20:01;;;;;;;;;3.00;3.00;;;;;9.99;84.00;99933.69;5023712;28;45520;-65
2022/01/04 10:22:30;;;;;;;;;2.00;2.00;;;;;10.08;83.22;99938.09;5037985;28;45343;-66
2022/01/04 10:25:02;;;;;;;;;3.00;3.00;;;;;10.07;83.01;99941.00;5033280;28;45925;-66
2022/01/04 10:27:33;;;;;;;;;1.67;1.67;;;;;10.01;82.46;99944.34;5037286;28;45302;-66
2022/01/04 10:30:22;;;;;;;;;1.67;1.67;;;;;9.89;81.79;99935.69;5020580;28;45394;-66
2022/01/04 10:33:11;;;;;;;;;2.00;2.00;;;;;9.84;82.40;99924.47;5039112;28;45184;-66
2022/01/04 10:35:42;;;;;;;;;3.67;2.00;;;;;9.94;82.58;99927.88;5024410;28;45439;-66
2022/01/04 10:38:33;;;;;;;;;4.00;3.00;;;;;10.09;82.84;99928.94;5057434;28;45371;-66
2022/01/04 10:41:06;;;;;;;;;2.67;1.33;;;;;10.13;81.90;99927.63;5043692;28;45735;-66
2022/01/04 10:43:52;;;;;;;;;2.00;2.00;;;;;10.00;82.23;99915.53;5038647;28;45369;-67
2022/01/04 10:46:29;;;;;;;;;4.67;2.00;;;;;10.05;82.56;99924.88;5030577;28;45579;-66
2022/01/04 10:48:55;;;;;;;;;1.00;1.00;;;;;10.10;82.12;99914.38;5034320;28;45334;-66
2022/01/04 10:51:22;;;;;;;;;3.00;1.00;;;;;10.15;81.67;99913.91;5024837;28;45382;-67
2022/01/04 10:54:00;;;;;;;;;1.33;1.33;;;;;10.05;81.74;99915.88;5036350;28;45337;-66
2022/01/04 10:56:31;;;;;;;;;3.00;1.00;;;;;10.15;82.21;99922.03;5024867;28;46641;-66
2022/01/04 10:59:00;;;;;;;;;2.00;2.00;;;;;10.12;81.80;99925.06;5035356;28;45377;-66
2022/01/04 11:01:28;;;;;;;;;1.00;1.00;;;;;9.89;82.20;99919.41;5023845;28;45426;-66
2022/01/04 11:04:00;;;;;;;;;3.00;1.33;;;;;9.91;81.56;99928.22;5036699;28;45602;-66
2022/01/04 11:06:36;;;;;;;;;2.00;2.00;;;;;9.93;82.12;99925.34;5026512;28;45508;-66
2022/01/04 11:09:04;;;;;;;;;3.33;2.00;;;;;9.86;82.06;99918.88;5034342;28;45369;-66
2022/01/04 11:11:29;;;;;;;;;3.00;3.00;;;;;9.92;83.12;99923.66;5030660;28;45314;-66
2022/01/04 11:13:54;;;;;;;;;4.00;3.00;;;;;9.99;83.34;99925.53;5049492;28;45432;-66
2022/01/04 11:16:25;;;;;;;;;4.00;3.00;;;;;10.13;82.19;99915.91;5031003;28;45248;-66
2022/01/04 11:18:53;;;;;;;;;1.00;1.00;;;;;10.20;81.94;99910.69;5032052;28;45538;-68
2022/01/04 11:21:25;;;;;;;;;2.67;2.67;;;;;10.16;81.53;99905.56;5033025;28;45400;-66
2022/01/04 11:23:52;;;;;;;;;12.67;8.00;;;;;10.08;81.75;99904.72;5036484;28;45242;-66
2022/01/04 11:26:19;;;;;;;;;9.33;3.33;;;;;10.03;82.08;99910.63;5034162;28;45903;-65
2022/01/04 11:28:47;;;;;;;;;4.33;4.33;;;;;10.06;82.73;99926.59;5035432;28;45397;-66
2022/01/04 11:31:31;;;;;;;;;1.00;1.00;;;;;9.99;82.17;99925.53;5027656;28;45384;-66
2022/01/04 11:34:10;;;;;;;;;2.67;2.00;;;;;10.13;83.23;99929.50;5033120;28;45316;-65
2022/01/04 11:36:39;;;;;;;;;5.00;3.00;;;;;10.22;82.35;99917.69;5036248;28;47445;-66
2022/01/04 11:39:39;;;;;;;;;3.00;3.00;;;;;10.28;81.83;99919.72;5035857;28;45456;-66
2022/01/04 11:42:09;;;;;;;;;1.67;1.67;;;;;10.35;81.69;99906.31;5031895;28;45274;-66
2022/01/04 11:44:44;;;;;;;;;2.33;2.33;;;;;10.38;81.64;99901.38;5031876;28;45470;-66
2022/01/04 11:47:15;;;;;;;;;3.00;3.00;;;;;10.36;81.36;99903.44;5037587;28;46702;-66